sensor_id;sensor_type;location;lat;lon;timestamp;P1;durP1;ratioP1;P2;durP2;ratioP2
33347;SDS011;19707;51.158;17.124;2023-03-01T00:00:14;189.60;;;84.00;;
33347;SDS011;19707;51.158;17.124;2023-03-01T00:03:36;197.20;;;85.70;;
33347;SDS011;19707;51.158;17.124;2023-03-01T00:06:39;199.50;;;89.80;;
33347;SDS011;19707;51.158;17.124;2023-03-01T00:09:41;213.80;;;91.60;;
33347;SDS011;19707;51.158;17.124;2023-03-01T00:12:43;192.90;;;86.60;;
33347;SDS011;19707;51.158;17.124;2023-03-01T00:15:45;209.30;;;91.30;;
33347;SDS011;19707;51.158;17.124;2023-03-01T00:18:48;228.50;;;98.40;;
33347;SDS011;19707;51.158;17.124;2023-03-01T00:21:50;213.40;;;96.30;;
33347;SDS011;19707;51.158;17.124;2023-03-01T00:24:52;223.30;;;90.70;;
33347;SDS011;19707;51.158;17.124;2023-03-01T00:27:54;221.70;;;94.50;;
33347;SDS011;19707;51.158;17.124;2023-03-01T00:31:01;218.30;;;99.90;;
33347;SDS011;19707;51.158;17.124;2023-03-01T00:34:05;223.20;;;99.50;;
33347;SDS011;19707;51.158;17.124;2023-03-01T00:37:07;227.80;;;96.20;;
33347;SDS011;19707;51.158;17.124;2023-03-01T00:40:10;222.20;;;95.10;;
33347;SDS011;19707;51.158;17.124;2023-03-01T00:43:12;230.70;;;102.50;;
33347;SDS011;19707;51.158;17.124;2023-03-01T00:46:16;240.60;;;100.50;;
33347;SDS011;19707;51.158;17.124;2023-03-01T00:49:20;233.30;;;98.50;;
33347;SDS011;19707;51.158;17.124;2023-03-01T00:52:22;224.40;;;98.30;;
33347;SDS011;19707;51.158;17.124;2023-03-01T00:55:25;214.40;;;93.40;;
33347;SDS011;19707;51.158;17.124;2023-03-01T00:58:27;207.90;;;96.20;;
33347;SDS011;19707;51.158;17.124;2023-03-01T01:01:30;213.30;;;97.00;;
33347;SDS011;19707;51.158;17.124;2023-03-01T01:04:33;217.60;;;97.90;;
33347;SDS011;19707;51.158;17.124;2023-03-01T01:07:35;221.70;;;100.90;;
33347;SDS011;19707;51.158;17.124;2023-03-01T01:10:37;211.50;;;94.20;;
33347;SDS011;19707;51.158;17.124;2023-03-01T01:13:40;218.60;;;95.10;;
33347;SDS011;19707;51.158;17.124;2023-03-01T01:16:42;223.40;;;95.60;;
33347;SDS011;19707;51.158;17.124;2023-03-01T01:19:45;208.80;;;92.40;;
33347;SDS011;19707;51.158;17.124;2023-03-01T01:22:48;199.60;;;92.00;;
33347;SDS011;19707;51.158;17.124;2023-03-01T01:25:50;202.00;;;94.70;;
33347;SDS011;19707;51.158;17.124;2023-03-01T01:28:53;191.20;;;88.30;;
33347;SDS011;19707;51.158;17.124;2023-03-01T01:31:56;190.80;;;104.40;;
33347;SDS011;19707;51.158;17.124;2023-03-01T01:34:59;200.50;;;87.60;;
33347;SDS011;19707;51.158;17.124;2023-03-01T01:38:01;196.40;;;87.40;;
33347;SDS011;19707;51.158;17.124;2023-03-01T01:41:04;194.70;;;84.50;;
33347;SDS011;19707;51.158;17.124;2023-03-01T01:47:23;176.90;;;77.70;;
33347;SDS011;19707;51.158;17.124;2023-03-01T01:50:26;184.00;;;77.80;;
33347;SDS011;19707;51.158;17.124;2023-03-01T01:53:40;193.70;;;81.30;;
33347;SDS011;19707;51.158;17.124;2023-03-01T01:56:44;178.20;;;77.60;;
33347;SDS011;19707;51.158;17.124;2023-03-01T01:59:51;175.70;;;76.90;;
33347;SDS011;19707;51.158;17.124;2023-03-01T02:02:56;167.80;;;73.40;;
33347;SDS011;19707;51.158;17.124;2023-03-01T02:09:14;164.50;;;73.20;;
33347;SDS011;19707;51.158;17.124;2023-03-01T02:12:18;158.80;;;69.40;;
33347;SDS011;19707;51.158;17.124;2023-03-01T02:15:23;161.20;;;69.90;;
33347;SDS011;19707;51.158;17.124;2023-03-01T02:18:25;153.50;;;70.80;;
33347;SDS011;19707;51.158;17.124;2023-03-01T02:31:19;166.60;;;70.30;;
33347;SDS011;19707;51.158;17.124;2023-03-01T02:34:40;169.60;;;72.90;;
33347;SDS011;19707;51.158;17.124;2023-03-01T02:37:43;165.80;;;71.10;;
33347;SDS011;19707;51.158;17.124;2023-03-01T02:40:46;157.00;;;71.20;;
33347;SDS011;19707;51.158;17.124;2023-03-01T02:43:48;160.10;;;70.40;;
33347;SDS011;19707;51.158;17.124;2023-03-01T02:46:52;172.70;;;74.40;;
33347;SDS011;19707;51.158;17.124;2023-03-01T02:49:55;176.30;;;73.40;;
33347;SDS011;19707;51.158;17.124;2023-03-01T02:53:19;174.30;;;75.70;;
33347;SDS011;19707;51.158;17.124;2023-03-01T02:56:25;199.30;;;79.10;;
33347;SDS011;19707;51.158;17.124;2023-03-01T02:59:29;180.70;;;75.60;;
33347;SDS011;19707;51.158;17.124;2023-03-01T03:02:34;181.50;;;75.50;;
33347;SDS011;19707;51.158;17.124;2023-03-01T03:05:39;166.00;;;71.30;;
33347;SDS011;19707;51.158;17.124;2023-03-01T03:08:41;164.50;;;73.10;;
33347;SDS011;19707;51.158;17.124;2023-03-01T03:11:44;169.70;;;74.60;;
33347;SDS011;19707;51.158;17.124;2023-03-01T03:14:46;178.60;;;78.00;;
33347;SDS011;19707;51.158;17.124;2023-03-01T03:17:49;182.80;;;75.70;;
33347;SDS011;19707;51.158;17.124;2023-03-01T03:20:52;175.10;;;74.70;;
33347;SDS011;19707;51.158;17.124;2023-03-01T03:23:55;194.20;;;76.80;;
33347;SDS011;19707;51.158;17.124;2023-03-01T03:26:57;184.60;;;77.10;;
33347;SDS011;19707;51.158;17.124;2023-03-01T03:29:59;179.40;;;73.80;;
33347;SDS011;19707;51.158;17.124;2023-03-01T03:33:01;174.80;;;73.20;;
33347;SDS011;19707;51.158;17.124;2023-03-01T03:36:04;182.10;;;74.80;;
33347;SDS011;19707;51.158;17.124;2023-03-01T03:39:06;169.80;;;72.20;;
33347;SDS011;19707;51.158;17.124;2023-03-01T03:42:08;171.20;;;72.20;;
33347;SDS011;19707;51.158;17.124;2023-03-01T03:45:11;158.70;;;69.80;;
33347;SDS011;19707;51.158;17.124;2023-03-01T03:48:13;160.60;;;70.40;;
33347;SDS011;19707;51.158;17.124;2023-03-01T03:51:17;165.90;;;69.10;;
33347;SDS011;19707;51.158;17.124;2023-03-01T03:54:19;154.90;;;66.40;;
33347;SDS011;19707;51.158;17.124;2023-03-01T03:57:21;154.40;;;68.50;;
33347;SDS011;19707;51.158;17.124;2023-03-01T04:00:23;174.20;;;70.40;;
33347;SDS011;19707;51.158;17.124;2023-03-01T04:03:26;163.10;;;68.40;;
33347;SDS011;19707;51.158;17.124;2023-03-01T04:06:29;162.60;;;68.80;;
33347;SDS011;19707;51.158;17.124;2023-03-01T04:09:31;160.10;;;71.40;;
33347;SDS011;19707;51.158;17.124;2023-03-01T04:12:34;169.10;;;73.40;;
33347;SDS011;19707;51.158;17.124;2023-03-01T04:15:36;158.90;;;71.00;;
33347;SDS011;19707;51.158;17.124;2023-03-01T04:18:38;165.30;;;70.40;;
33347;SDS011;19707;51.158;17.124;2023-03-01T04:21:41;157.40;;;70.10;;
33347;SDS011;19707;51.158;17.124;2023-03-01T04:24:43;160.50;;;71.70;;
33347;SDS011;19707;51.158;17.124;2023-03-01T04:27:45;177.30;;;77.50;;
33347;SDS011;19707;51.158;17.124;2023-03-01T04:30:47;179.30;;;75.10;;
33347;SDS011;19707;51.158;17.124;2023-03-01T04:33:51;174.50;;;73.90;;
33347;SDS011;19707;51.158;17.124;2023-03-01T04:36:55;189.50;;;77.60;;
33347;SDS011;19707;51.158;17.124;2023-03-01T04:39:57;169.80;;;71.90;;
33347;SDS011;19707;51.158;17.124;2023-03-01T04:43:00;179.10;;;72.30;;
33347;SDS011;19707;51.158;17.124;2023-03-01T04:46:07;180.20;;;71.40;;
33347;SDS011;19707;51.158;17.124;2023-03-01T04:49:11;160.20;;;71.60;;
33347;SDS011;19707;51.158;17.124;2023-03-01T04:52:13;173.30;;;75.40;;
33347;SDS011;19707;51.158;17.124;2023-03-01T04:55:15;180.70;;;72.60;;
33347;SDS011;19707;51.158;17.124;2023-03-01T04:58:17;167.60;;;68.50;;
33347;SDS011;19707;51.158;17.124;2023-03-01T05:01:20;174.70;;;71.30;;
33347;SDS011;19707;51.158;17.124;2023-03-01T05:04:23;172.30;;;70.40;;
33347;SDS011;19707;51.158;17.124;2023-03-01T05:07:25;176.00;;;70.50;;
33347;SDS011;19707;51.158;17.124;2023-03-01T05:10:29;164.20;;;68.40;;
33347;SDS011;19707;51.158;17.124;2023-03-01T05:13:32;161.00;;;70.00;;
33347;SDS011;19707;51.158;17.124;2023-03-01T05:16:35;163.10;;;66.90;;
33347;SDS011;19707;51.158;17.124;2023-03-01T05:19:38;147.80;;;64.80;;
33347;SDS011;19707;51.158;17.124;2023-03-01T05:22:40;160.90;;;64.50;;
33347;SDS011;19707;51.158;17.124;2023-03-01T05:25:42;156.60;;;64.70;;
33347;SDS011;19707;51.158;17.124;2023-03-01T05:28:45;160.70;;;65.80;;
33347;SDS011;19707;51.158;17.124;2023-03-01T05:31:47;154.00;;;66.20;;
33347;SDS011;19707;51.158;17.124;2023-03-01T05:34:49;161.00;;;66.10;;
33347;SDS011;19707;51.158;17.124;2023-03-01T05:37:53;147.30;;;64.60;;
33347;SDS011;19707;51.158;17.124;2023-03-01T05:40:55;138.20;;;62.50;;
33347;SDS011;19707;51.158;17.124;2023-03-01T05:43:58;147.70;;;63.80;;
33347;SDS011;19707;51.158;17.124;2023-03-01T05:47:00;155.70;;;64.90;;
33347;SDS011;19707;51.158;17.124;2023-03-01T05:50:02;135.60;;;61.30;;
33347;SDS011;19707;51.158;17.124;2023-03-01T05:53:05;145.00;;;66.80;;
33347;SDS011;19707;51.158;17.124;2023-03-01T05:56:10;147.40;;;64.20;;
33347;SDS011;19707;51.158;17.124;2023-03-01T05:59:12;156.30;;;65.70;;
33347;SDS011;19707;51.158;17.124;2023-03-01T06:02:16;154.10;;;66.40;;
33347;SDS011;19707;51.158;17.124;2023-03-01T06:05:18;171.00;;;73.30;;
33347;SDS011;19707;51.158;17.124;2023-03-01T06:08:20;169.70;;;70.60;;
33347;SDS011;19707;51.158;17.124;2023-03-01T06:11:23;166.00;;;69.50;;
33347;SDS011;19707;51.158;17.124;2023-03-01T06:14:25;180.80;;;77.00;;
33347;SDS011;19707;51.158;17.124;2023-03-01T06:17:34;188.60;;;77.60;;
33347;SDS011;19707;51.158;17.124;2023-03-01T06:20:39;188.30;;;77.50;;
33347;SDS011;19707;51.158;17.124;2023-03-01T06:23:41;189.10;;;81.00;;
33347;SDS011;19707;51.158;17.124;2023-03-01T06:26:44;188.00;;;80.00;;
33347;SDS011;19707;51.158;17.124;2023-03-01T06:29:46;191.40;;;82.00;;
33347;SDS011;19707;51.158;17.124;2023-03-01T06:32:48;180.40;;;79.90;;
33347;SDS011;19707;51.158;17.124;2023-03-01T06:35:51;174.80;;;76.20;;
33347;SDS011;19707;51.158;17.124;2023-03-01T06:38:53;163.50;;;75.40;;
33347;SDS011;19707;51.158;17.124;2023-03-01T06:41:55;166.10;;;76.10;;
33347;SDS011;19707;51.158;17.124;2023-03-01T06:44:58;171.60;;;77.20;;
33347;SDS011;19707;51.158;17.124;2023-03-01T06:48:06;162.30;;;74.90;;
33347;SDS011;19707;51.158;17.124;2023-03-01T06:51:09;164.30;;;73.40;;
33347;SDS011;19707;51.158;17.124;2023-03-01T06:54:11;237.60;;;106.90;;
33347;SDS011;19707;51.158;17.124;2023-03-01T06:57:13;256.40;;;118.70;;
33347;SDS011;19707;51.158;17.124;2023-03-01T07:00:16;238.80;;;111.70;;
33347;SDS011;19707;51.158;17.124;2023-03-01T07:03:18;251.10;;;116.90;;
33347;SDS011;19707;51.158;17.124;2023-03-01T07:06:21;229.20;;;102.20;;
33347;SDS011;19707;51.158;17.124;2023-03-01T07:09:23;199.70;;;98.10;;
33347;SDS011;19707;51.158;17.124;2023-03-01T07:12:25;198.70;;;94.10;;
33347;SDS011;19707;51.158;17.124;2023-03-01T07:15:27;172.90;;;86.10;;
33347;SDS011;19707;51.158;17.124;2023-03-01T07:18:30;172.10;;;83.80;;
33347;SDS011;19707;51.158;17.124;2023-03-01T07:21:32;157.80;;;76.30;;
33347;SDS011;19707;51.158;17.124;2023-03-01T07:24:35;153.00;;;73.30;;
33347;SDS011;19707;51.158;17.124;2023-03-01T07:27:37;123.80;;;61.40;;
33347;SDS011;19707;51.158;17.124;2023-03-01T07:30:39;137.20;;;67.00;;
33347;SDS011;19707;51.158;17.124;2023-03-01T07:33:42;127.20;;;61.50;;
33347;SDS011;19707;51.158;17.124;2023-03-01T07:36:44;116.90;;;57.00;;
33347;SDS011;19707;51.158;17.124;2023-03-01T07:39:47;111.50;;;56.10;;
33347;SDS011;19707;51.158;17.124;2023-03-01T07:42:54;108.40;;;53.60;;
33347;SDS011;19707;51.158;17.124;2023-03-01T07:45:58;96.70;;;51.20;;
33347;SDS011;19707;51.158;17.124;2023-03-01T07:49:03;89.10;;;45.60;;
33347;SDS011;19707;51.158;17.124;2023-03-01T07:52:09;85.50;;;44.70;;
33347;SDS011;19707;51.158;17.124;2023-03-01T07:55:12;92.80;;;47.90;;
33347;SDS011;19707;51.158;17.124;2023-03-01T07:58:14;82.60;;;47.60;;
33347;SDS011;19707;51.158;17.124;2023-03-01T08:01:18;92.00;;;50.80;;
33347;SDS011;19707;51.158;17.124;2023-03-01T08:04:21;81.50;;;44.70;;
33347;SDS011;19707;51.158;17.124;2023-03-01T08:07:26;82.40;;;46.20;;
33347;SDS011;19707;51.158;17.124;2023-03-01T08:10:31;80.60;;;43.50;;
33347;SDS011;19707;51.158;17.124;2023-03-01T08:13:34;85.50;;;45.80;;
33347;SDS011;19707;51.158;17.124;2023-03-01T08:16:36;70.60;;;40.80;;
33347;SDS011;19707;51.158;17.124;2023-03-01T08:19:39;68.50;;;38.50;;
33347;SDS011;19707;51.158;17.124;2023-03-01T08:22:41;70.30;;;41.60;;
33347;SDS011;19707;51.158;17.124;2023-03-01T08:25:43;68.40;;;39.70;;
33347;SDS011;19707;51.158;17.124;2023-03-01T08:28:45;73.80;;;38.20;;
33347;SDS011;19707;51.158;17.124;2023-03-01T08:31:48;76.30;;;43.20;;
33347;SDS011;19707;51.158;17.124;2023-03-01T08:34:50;90.40;;;51.30;;
33347;SDS011;19707;51.158;17.124;2023-03-01T08:37:52;80.40;;;44.70;;
33347;SDS011;19707;51.158;17.124;2023-03-01T08:40:54;84.50;;;48.00;;
33347;SDS011;19707;51.158;17.124;2023-03-01T08:43:56;79.30;;;45.80;;
33347;SDS011;19707;51.158;17.124;2023-03-01T08:47:01;75.00;;;42.30;;
33347;SDS011;19707;51.158;17.124;2023-03-01T08:50:05;68.70;;;40.50;;
33347;SDS011;19707;51.158;17.124;2023-03-01T08:53:08;71.90;;;41.30;;
33347;SDS011;19707;51.158;17.124;2023-03-01T08:56:10;59.10;;;35.40;;
33347;SDS011;19707;51.158;17.124;2023-03-01T08:59:13;48.80;;;27.60;;
33347;SDS011;19707;51.158;17.124;2023-03-01T09:02:17;38.30;;;23.00;;
33347;SDS011;19707;51.158;17.124;2023-03-01T09:05:20;39.30;;;23.40;;
33347;SDS011;19707;51.158;17.124;2023-03-01T09:08:22;44.20;;;26.20;;
33347;SDS011;19707;51.158;17.124;2023-03-01T09:11:24;44.00;;;39.70;;
33347;SDS011;19707;51.158;17.124;2023-03-01T09:14:27;48.00;;;29.40;;
33347;SDS011;19707;51.158;17.124;2023-03-01T09:17:29;51.90;;;29.90;;
33347;SDS011;19707;51.158;17.124;2023-03-01T09:20:32;46.80;;;28.60;;
33347;SDS011;19707;51.158;17.124;2023-03-01T09:23:36;47.00;;;27.20;;
33347;SDS011;19707;51.158;17.124;2023-03-01T09:26:40;52.40;;;31.80;;
33347;SDS011;19707;51.158;17.124;2023-03-01T09:29:43;48.40;;;29.60;;
33347;SDS011;19707;51.158;17.124;2023-03-01T09:32:45;46.70;;;28.30;;
33347;SDS011;19707;51.158;17.124;2023-03-01T09:35:47;49.10;;;31.60;;
33347;SDS011;19707;51.158;17.124;2023-03-01T09:38:49;48.90;;;28.40;;
33347;SDS011;19707;51.158;17.124;2023-03-01T09:42:00;43.40;;;27.90;;
33347;SDS011;19707;51.158;17.124;2023-03-01T09:45:27;58.50;;;33.60;;
33347;SDS011;19707;51.158;17.124;2023-03-01T09:48:31;48.20;;;30.30;;
33347;SDS011;19707;51.158;17.124;2023-03-01T09:51:41;47.10;;;26.60;;
33347;SDS011;19707;51.158;17.124;2023-03-01T09:54:43;48.50;;;26.50;;
33347;SDS011;19707;51.158;17.124;2023-03-01T10:00:49;48.50;;;29.40;;
33347;SDS011;19707;51.158;17.124;2023-03-01T10:04:05;49.20;;;28.80;;
33347;SDS011;19707;51.158;17.124;2023-03-01T10:10:36;48.10;;;29.30;;
33347;SDS011;19707;51.158;17.124;2023-03-01T10:20:30;44.60;;;24.50;;
33347;SDS011;19707;51.158;17.124;2023-03-01T10:23:56;35.20;;;19.50;;
33347;SDS011;19707;51.158;17.124;2023-03-01T10:27:13;33.10;;;19.50;;
33347;SDS011;19707;51.158;17.124;2023-03-01T10:30:38;34.30;;;20.40;;
33347;SDS011;19707;51.158;17.124;2023-03-01T10:33:43;32.40;;;20.90;;
33347;SDS011;19707;51.158;17.124;2023-03-01T10:36:50;35.40;;;21.00;;
33347;SDS011;19707;51.158;17.124;2023-03-01T10:39:54;34.90;;;20.10;;
33347;SDS011;19707;51.158;17.124;2023-03-01T10:46:01;33.60;;;19.50;;
33347;SDS011;19707;51.158;17.124;2023-03-01T10:49:10;43.10;;;25.30;;
33347;SDS011;19707;51.158;17.124;2023-03-01T10:52:32;41.00;;;24.90;;
33347;SDS011;19707;51.158;17.124;2023-03-01T10:55:38;46.60;;;26.80;;
33347;SDS011;19707;51.158;17.124;2023-03-01T10:58:56;43.80;;;24.50;;
33347;SDS011;19707;51.158;17.124;2023-03-01T11:02:02;42.80;;;25.60;;
33347;SDS011;19707;51.158;17.124;2023-03-01T11:08:55;45.70;;;26.60;;
33347;SDS011;19707;51.158;17.124;2023-03-01T11:11:54;40.90;;;25.90;;
33347;SDS011;19707;51.158;17.124;2023-03-01T11:15:00;37.40;;;24.70;;
33347;SDS011;19707;51.158;17.124;2023-03-01T11:18:03;42.00;;;26.20;;
33347;SDS011;19707;51.158;17.124;2023-03-01T11:21:06;45.40;;;25.80;;
33347;SDS011;19707;51.158;17.124;2023-03-01T11:24:12;43.50;;;25.70;;
33347;SDS011;19707;51.158;17.124;2023-03-01T11:27:18;36.20;;;23.60;;
33347;SDS011;19707;51.158;17.124;2023-03-01T11:30:29;42.10;;;24.90;;
33347;SDS011;19707;51.158;17.124;2023-03-01T11:33:53;38.80;;;24.30;;
33347;SDS011;19707;51.158;17.124;2023-03-01T11:37:00;38.90;;;24.20;;
33347;SDS011;19707;51.158;17.124;2023-03-01T11:40:12;39.80;;;22.80;;
33347;SDS011;19707;51.158;17.124;2023-03-01T11:49:51;34.80;;;20.60;;
33347;SDS011;19707;51.158;17.124;2023-03-01T12:26:33;18.60;;;11.70;;
33347;SDS011;19707;51.158;17.124;2023-03-01T12:29:46;19.40;;;12.00;;
33347;SDS011;19707;51.158;17.124;2023-03-01T12:36:38;23.70;;;14.60;;
33347;SDS011;19707;51.158;17.124;2023-03-01T12:43:31;20.70;;;13.60;;
33347;SDS011;19707;51.158;17.124;2023-03-01T12:53:39;26.60;;;14.40;;
33347;SDS011;19707;51.158;17.124;2023-03-01T12:56:55;24.00;;;13.60;;
33347;SDS011;19707;51.158;17.124;2023-03-01T13:00:17;19.00;;;13.20;;
33347;SDS011;19707;51.158;17.124;2023-03-01T13:03:42;21.50;;;13.00;;
33347;SDS011;19707;51.158;17.124;2023-03-01T13:07:14;20.70;;;13.10;;
33347;SDS011;19707;51.158;17.124;2023-03-01T13:10:26;17.40;;;11.40;;
33347;SDS011;19707;51.158;17.124;2023-03-01T13:13:50;23.10;;;14.50;;
33347;SDS011;19707;51.158;17.124;2023-03-01T13:16:53;27.30;;;15.40;;
33347;SDS011;19707;51.158;17.124;2023-03-01T13:19:57;24.10;;;14.30;;
33347;SDS011;19707;51.158;17.124;2023-03-01T13:23:47;22.70;;;14.20;;
33347;SDS011;19707;51.158;17.124;2023-03-01T13:26:23;20.70;;;13.60;;
33347;SDS011;19707;51.158;17.124;2023-03-01T13:29:26;25.30;;;14.10;;
33347;SDS011;19707;51.158;17.124;2023-03-01T13:35:43;24.40;;;15.30;;
33347;SDS011;19707;51.158;17.124;2023-03-01T13:38:47;26.50;;;17.30;;
33347;SDS011;19707;51.158;17.124;2023-03-01T13:41:55;29.50;;;17.40;;
33347;SDS011;19707;51.158;17.124;2023-03-01T13:44:59;31.90;;;17.20;;
33347;SDS011;19707;51.158;17.124;2023-03-01T13:48:03;28.10;;;15.10;;
33347;SDS011;19707;51.158;17.124;2023-03-01T13:51:12;25.70;;;15.50;;
33347;SDS011;19707;51.158;17.124;2023-03-01T13:54:25;27.20;;;16.60;;
33347;SDS011;19707;51.158;17.124;2023-03-01T13:57:32;25.60;;;16.50;;
33347;SDS011;19707;51.158;17.124;2023-03-01T14:00:38;27.30;;;17.30;;
33347;SDS011;19707;51.158;17.124;2023-03-01T14:03:41;25.50;;;16.40;;
33347;SDS011;19707;51.158;17.124;2023-03-01T14:06:44;28.50;;;17.70;;
33347;SDS011;19707;51.158;17.124;2023-03-01T14:09:51;23.70;;;15.90;;
33347;SDS011;19707;51.158;17.124;2023-03-01T14:19:58;26.40;;;15.70;;
33347;SDS011;19707;51.158;17.124;2023-03-01T14:23:02;28.30;;;16.50;;
33347;SDS011;19707;51.158;17.124;2023-03-01T14:26:09;25.60;;;16.00;;
33347;SDS011;19707;51.158;17.124;2023-03-01T14:29:26;29.70;;;16.50;;
33347;SDS011;19707;51.158;17.124;2023-03-01T14:32:36;26.00;;;15.30;;
33347;SDS011;19707;51.158;17.124;2023-03-01T14:35:38;24.80;;;14.90;;
33347;SDS011;19707;51.158;17.124;2023-03-01T14:38:45;22.40;;;13.50;;
33347;SDS011;19707;51.158;17.124;2023-03-01T14:41:48;20.70;;;13.40;;
33347;SDS011;19707;51.158;17.124;2023-03-01T14:44:52;28.70;;;16.50;;
33347;SDS011;19707;51.158;17.124;2023-03-01T14:47:58;27.00;;;15.90;;
33347;SDS011;19707;51.158;17.124;2023-03-01T14:51:02;26.00;;;16.10;;
33347;SDS011;19707;51.158;17.124;2023-03-01T14:57:48;28.20;;;17.30;;
33347;SDS011;19707;51.158;17.124;2023-03-01T15:03:58;26.40;;;16.40;;
33347;SDS011;19707;51.158;17.124;2023-03-01T15:07:03;26.90;;;16.70;;
33347;SDS011;19707;51.158;17.124;2023-03-01T15:10:11;26.20;;;16.60;;
33347;SDS011;19707;51.158;17.124;2023-03-01T15:13:23;23.00;;;14.00;;
33347;SDS011;19707;51.158;17.124;2023-03-01T15:16:26;23.00;;;14.50;;
33347;SDS011;19707;51.158;17.124;2023-03-01T15:19:33;21.90;;;14.40;;
33347;SDS011;19707;51.158;17.124;2023-03-01T15:22:35;24.60;;;15.60;;
33347;SDS011;19707;51.158;17.124;2023-03-01T15:25:37;25.10;;;16.10;;
33347;SDS011;19707;51.158;17.124;2023-03-01T15:28:49;29.20;;;16.80;;
33347;SDS011;19707;51.158;17.124;2023-03-01T15:35:00;27.40;;;17.00;;
33347;SDS011;19707;51.158;17.124;2023-03-01T15:38:03;28.90;;;17.20;;
33347;SDS011;19707;51.158;17.124;2023-03-01T15:41:21;29.90;;;17.90;;
33347;SDS011;19707;51.158;17.124;2023-03-01T15:44:35;29.10;;;18.40;;
33347;SDS011;19707;51.158;17.124;2023-03-01T15:47:39;31.50;;;18.70;;
33347;SDS011;19707;51.158;17.124;2023-03-01T15:50:42;29.70;;;18.60;;
33347;SDS011;19707;51.158;17.124;2023-03-01T15:53:47;27.30;;;17.80;;
33347;SDS011;19707;51.158;17.124;2023-03-01T15:56:52;28.90;;;17.80;;
33347;SDS011;19707;51.158;17.124;2023-03-01T15:59:54;35.40;;;19.90;;
33347;SDS011;19707;51.158;17.124;2023-03-01T16:02:56;31.60;;;18.50;;
33347;SDS011;19707;51.158;17.124;2023-03-01T16:05:59;38.60;;;22.00;;
33347;SDS011;19707;51.158;17.124;2023-03-01T16:09:02;41.90;;;25.20;;
33347;SDS011;19707;51.158;17.124;2023-03-01T16:12:05;41.10;;;23.00;;
33347;SDS011;19707;51.158;17.124;2023-03-01T16:15:15;54.50;;;33.10;;
33347;SDS011;19707;51.158;17.124;2023-03-01T16:18:19;61.50;;;33.60;;
33347;SDS011;19707;51.158;17.124;2023-03-01T16:21:23;60.00;;;35.50;;
33347;SDS011;19707;51.158;17.124;2023-03-01T16:24:26;56.80;;;35.00;;
33347;SDS011;19707;51.158;17.124;2023-03-01T16:27:28;57.60;;;33.00;;
33347;SDS011;19707;51.158;17.124;2023-03-01T16:30:31;52.50;;;31.60;;
33347;SDS011;19707;51.158;17.124;2023-03-01T16:33:33;48.10;;;29.50;;
33347;SDS011;19707;51.158;17.124;2023-03-01T16:36:36;53.10;;;30.50;;
33347;SDS011;19707;51.158;17.124;2023-03-01T16:39:38;51.50;;;31.80;;
33347;SDS011;19707;51.158;17.124;2023-03-01T16:42:40;68.70;;;36.70;;
33347;SDS011;19707;51.158;17.124;2023-03-01T16:45:43;66.10;;;36.70;;
33347;SDS011;19707;51.158;17.124;2023-03-01T16:48:47;71.50;;;39.30;;
33347;SDS011;19707;51.158;17.124;2023-03-01T16:51:49;57.50;;;32.50;;
33347;SDS011;19707;51.158;17.124;2023-03-01T16:54:52;50.20;;;31.70;;
33347;SDS011;19707;51.158;17.124;2023-03-01T16:57:54;52.70;;;30.40;;
33347;SDS011;19707;51.158;17.124;2023-03-01T17:01:02;52.00;;;29.70;;
33347;SDS011;19707;51.158;17.124;2023-03-01T17:04:12;47.30;;;29.50;;
33347;SDS011;19707;51.158;17.124;2023-03-01T17:07:15;64.20;;;31.80;;
33347;SDS011;19707;51.158;17.124;2023-03-01T17:10:17;51.10;;;29.00;;
33347;SDS011;19707;51.158;17.124;2023-03-01T17:13:19;55.40;;;31.40;;
33347;SDS011;19707;51.158;17.124;2023-03-01T17:16:22;58.20;;;31.30;;
33347;SDS011;19707;51.158;17.124;2023-03-01T17:19:25;52.00;;;29.20;;
33347;SDS011;19707;51.158;17.124;2023-03-01T17:22:27;52.20;;;30.40;;
33347;SDS011;19707;51.158;17.124;2023-03-01T17:25:29;55.80;;;28.90;;
33347;SDS011;19707;51.158;17.124;2023-03-01T17:28:33;57.40;;;30.60;;
33347;SDS011;19707;51.158;17.124;2023-03-01T17:31:36;81.80;;;44.50;;
33347;SDS011;19707;51.158;17.124;2023-03-01T17:34:41;60.10;;;33.40;;
33347;SDS011;19707;51.158;17.124;2023-03-01T17:37:44;67.70;;;33.70;;
33347;SDS011;19707;51.158;17.124;2023-03-01T17:40:47;60.70;;;31.40;;
33347;SDS011;19707;51.158;17.124;2023-03-01T17:43:49;57.70;;;32.30;;
33347;SDS011;19707;51.158;17.124;2023-03-01T17:46:52;64.30;;;32.10;;
33347;SDS011;19707;51.158;17.124;2023-03-01T17:49:54;63.20;;;32.30;;
33347;SDS011;19707;51.158;17.124;2023-03-01T17:52:56;59.00;;;33.20;;
33347;SDS011;19707;51.158;17.124;2023-03-01T17:56:00;60.40;;;33.20;;
33347;SDS011;19707;51.158;17.124;2023-03-01T17:59:04;60.20;;;32.30;;
33347;SDS011;19707;51.158;17.124;2023-03-01T18:02:09;61.60;;;32.10;;
33347;SDS011;19707;51.158;17.124;2023-03-01T18:05:12;66.00;;;30.90;;
33347;SDS011;19707;51.158;17.124;2023-03-01T18:08:15;56.60;;;31.30;;
33347;SDS011;19707;51.158;17.124;2023-03-01T18:11:21;56.80;;;29.50;;
33347;SDS011;19707;51.158;17.124;2023-03-01T18:14:25;60.20;;;32.80;;
33347;SDS011;19707;51.158;17.124;2023-03-01T18:17:30;63.00;;;31.10;;
33347;SDS011;19707;51.158;17.124;2023-03-01T18:20:32;59.90;;;32.10;;
33347;SDS011;19707;51.158;17.124;2023-03-01T18:23:35;61.40;;;31.70;;
33347;SDS011;19707;51.158;17.124;2023-03-01T18:26:38;75.90;;;39.60;;
33347;SDS011;19707;51.158;17.124;2023-03-01T18:29:40;118.50;;;62.70;;
33347;SDS011;19707;51.158;17.124;2023-03-01T18:32:44;129.60;;;63.20;;
33347;SDS011;19707;51.158;17.124;2023-03-01T18:35:46;84.40;;;43.20;;
33347;SDS011;19707;51.158;17.124;2023-03-01T18:38:50;122.00;;;64.10;;
33347;SDS011;19707;51.158;17.124;2023-03-01T18:41:54;126.80;;;62.60;;
33347;SDS011;19707;51.158;17.124;2023-03-01T18:44:56;99.40;;;51.60;;
33347;SDS011;19707;51.158;17.124;2023-03-01T18:47:58;99.90;;;50.30;;
33347;SDS011;19707;51.158;17.124;2023-03-01T18:51:11;109.50;;;55.40;;
33347;SDS011;19707;51.158;17.124;2023-03-01T18:54:18;116.70;;;54.70;;
33347;SDS011;19707;51.158;17.124;2023-03-01T18:57:20;128.60;;;65.00;;
33347;SDS011;19707;51.158;17.124;2023-03-01T19:00:22;122.30;;;60.50;;
33347;SDS011;19707;51.158;17.124;2023-03-01T19:03:25;111.10;;;54.70;;
33347;SDS011;19707;51.158;17.124;2023-03-01T19:06:30;114.80;;;58.90;;
33347;SDS011;19707;51.158;17.124;2023-03-01T19:09:34;107.00;;;54.60;;
33347;SDS011;19707;51.158;17.124;2023-03-01T19:12:36;113.40;;;58.30;;
33347;SDS011;19707;51.158;17.124;2023-03-01T19:15:39;116.50;;;57.70;;
33347;SDS011;19707;51.158;17.124;2023-03-01T19:18:42;107.90;;;56.00;;
33347;SDS011;19707;51.158;17.124;2023-03-01T19:21:52;104.50;;;47.70;;
33347;SDS011;19707;51.158;17.124;2023-03-01T19:24:58;105.90;;;50.90;;
33347;SDS011;19707;51.158;17.124;2023-03-01T19:28:00;99.50;;;49.30;;